sensor_id;sensor_type;location;lat;lon;timestamp;P1;durP1;ratioP1;P2;durP2;ratioP2
72797;SDS011;61084;55.816;37.036;2023-08-21T00:00:59;5.82;;;2.15;;
72797;SDS011;61084;55.816;37.036;2023-08-21T00:03:25;2.28;;;1.88;;
72797;SDS011;61084;55.816;37.036;2023-08-21T00:05:51;2.53;;;2.00;;
72797;SDS011;61084;55.816;37.036;2023-08-21T00:08:16;6.55;;;2.20;;
72797;SDS011;61084;55.816;37.036;2023-08-21T00:10:42;3.67;;;2.15;;
72797;SDS011;61084;55.816;37.036;2023-08-21T00:13:08;3.45;;;2.45;;
72797;SDS011;61084;55.816;37.036;2023-08-21T00:15:34;4.00;;;2.58;;
72797;SDS011;61084;55.816;37.036;2023-08-21T00:18:00;4.82;;;2.20;;
72797;SDS011;61084;55.816;37.036;2023-08-21T00:20:26;4.10;;;2.28;;
72797;SDS011;61084;55.816;37.036;2023-08-21T00:22:52;4.28;;;2.28;;
72797;SDS011;61084;55.816;37.036;2023-08-21T00:25:18;5.20;;;2.60;;
72797;SDS011;61084;55.816;37.036;2023-08-21T00:27:45;5.68;;;2.67;;
72797;SDS011;61084;55.816;37.036;2023-08-21T00:30:11;3.00;;;2.50;;
72797;SDS011;61084;55.816;37.036;2023-08-21T00:32:41;3.30;;;2.13;;
72797;SDS011;61084;55.816;37.036;2023-08-21T00:35:07;9.18;;;2.63;;
72797;SDS011;61084;55.816;37.036;2023-08-21T00:37:34;3.35;;;2.80;;
72797;SDS011;61084;55.816;37.036;2023-08-21T00:39:59;5.00;;;2.50;;
72797;SDS011;61084;55.816;37.036;2023-08-21T00:42:25;4.05;;;2.58;;
72797;SDS011;61084;55.816;37.036;2023-08-21T00:44:51;9.23;;;2.70;;
72797;SDS011;61084;55.816;37.036;2023-08-21T00:47:17;3.08;;;2.60;;
72797;SDS011;61084;55.816;37.036;2023-08-21T00:49:45;3.10;;;2.60;;
72797;SDS011;61084;55.816;37.036;2023-08-21T00:52:12;3.22;;;2.47;;
72797;SDS011;61084;55.816;37.036;2023-08-21T00:54:39;2.83;;;2.38;;
72797;SDS011;61084;55.816;37.036;2023-08-21T00:57:06;15.40;;;2.55;;
72797;SDS011;61084;55.816;37.036;2023-08-21T00:59:32;4.32;;;2.28;;
72797;SDS011;61084;55.816;37.036;2023-08-21T01:01:58;9.18;;;2.45;;
72797;SDS011;61084;55.816;37.036;2023-08-21T01:04:24;4.47;;;2.45;;
72797;SDS011;61084;55.816;37.036;2023-08-21T01:06:50;7.28;;;2.33;;
72797;SDS011;61084;55.816;37.036;2023-08-21T01:09:18;4.13;;;2.33;;
72797;SDS011;61084;55.816;37.036;2023-08-21T01:14:51;6.25;;;3.15;;
72797;SDS011;61084;55.816;37.036;2023-08-21T01:17:18;4.53;;;2.33;;
72797;SDS011;61084;55.816;37.036;2023-08-21T01:19:47;3.78;;;2.40;;
72797;SDS011;61084;55.816;37.036;2023-08-21T01:22:15;5.68;;;2.20;;
72797;SDS011;61084;55.816;37.036;2023-08-21T01:24:40;4.88;;;2.20;;
72797;SDS011;61084;55.816;37.036;2023-08-21T01:27:07;3.20;;;2.30;;
72797;SDS011;61084;55.816;37.036;2023-08-21T01:29:34;5.93;;;2.22;;
72797;SDS011;61084;55.816;37.036;2023-08-21T01:34:40;3.70;;;2.38;;
72797;SDS011;61084;55.816;37.036;2023-08-21T01:37:07;3.22;;;2.20;;
72797;SDS011;61084;55.816;37.036;2023-08-21T01:39:34;5.13;;;2.17;;
72797;SDS011;61084;55.816;37.036;2023-08-21T01:42:00;3.00;;;2.40;;
72797;SDS011;61084;55.816;37.036;2023-08-21T01:44:26;5.32;;;2.08;;
72797;SDS011;61084;55.816;37.036;2023-08-21T01:46:55;4.72;;;2.38;;
72797;SDS011;61084;55.816;37.036;2023-08-21T01:49:21;3.80;;;2.50;;
72797;SDS011;61084;55.816;37.036;2023-08-21T01:51:46;5.13;;;2.50;;
72797;SDS011;61084;55.816;37.036;2023-08-21T01:54:12;4.88;;;2.40;;
72797;SDS011;61084;55.816;37.036;2023-08-21T01:56:38;3.25;;;2.50;;
72797;SDS011;61084;55.816;37.036;2023-08-21T01:59:04;5.03;;;2.40;;
72797;SDS011;61084;55.816;37.036;2023-08-21T02:01:32;8.80;;;2.50;;
72797;SDS011;61084;55.816;37.036;2023-08-21T02:03:58;4.85;;;2.28;;
72797;SDS011;61084;55.816;37.036;2023-08-21T02:06:24;4.55;;;2.38;;
72797;SDS011;61084;55.816;37.036;2023-08-21T02:08:50;4.05;;;2.55;;
72797;SDS011;61084;55.816;37.036;2023-08-21T02:11:17;8.40;;;2.80;;
72797;SDS011;61084;55.816;37.036;2023-08-21T02:13:43;3.72;;;2.55;;
72797;SDS011;61084;55.816;37.036;2023-08-21T02:16:10;5.15;;;2.60;;
72797;SDS011;61084;55.816;37.036;2023-08-21T02:18:36;5.40;;;2.92;;
72797;SDS011;61084;55.816;37.036;2023-08-21T02:21:02;5.90;;;2.58;;
72797;SDS011;61084;55.816;37.036;2023-08-21T02:23:28;4.40;;;2.63;;
72797;SDS011;61084;55.816;37.036;2023-08-21T02:25:55;5.85;;;2.78;;
72797;SDS011;61084;55.816;37.036;2023-08-21T02:28:22;4.32;;;2.20;;
72797;SDS011;61084;55.816;37.036;2023-08-21T02:30:48;6.85;;;2.80;;
72797;SDS011;61084;55.816;37.036;2023-08-21T02:33:14;3.78;;;2.55;;
72797;SDS011;61084;55.816;37.036;2023-08-21T02:35:40;7.28;;;2.58;;
72797;SDS011;61084;55.816;37.036;2023-08-21T02:38:06;3.25;;;2.63;;
72797;SDS011;61084;55.816;37.036;2023-08-21T02:40:35;5.32;;;2.40;;
72797;SDS011;61084;55.816;37.036;2023-08-21T02:45:28;4.28;;;2.60;;
72797;SDS011;61084;55.816;37.036;2023-08-21T02:47:57;4.88;;;2.90;;
72797;SDS011;61084;55.816;37.036;2023-08-21T02:50:23;5.13;;;2.80;;
72797;SDS011;61084;55.816;37.036;2023-08-21T02:52:49;4.45;;;3.22;;
72797;SDS011;61084;55.816;37.036;2023-08-21T02:55:15;4.85;;;2.72;;
72797;SDS011;61084;55.816;37.036;2023-08-21T02:57:41;3.33;;;2.90;;
72797;SDS011;61084;55.816;37.036;2023-08-21T03:00:09;6.70;;;3.40;;
72797;SDS011;61084;55.816;37.036;2023-08-21T03:02:35;4.47;;;2.75;;
72797;SDS011;61084;55.816;37.036;2023-08-21T03:05:01;7.60;;;3.00;;
72797;SDS011;61084;55.816;37.036;2023-08-21T03:07:29;4.18;;;2.80;;
72797;SDS011;61084;55.816;37.036;2023-08-21T03:09:55;4.97;;;2.92;;
72797;SDS011;61084;55.816;37.036;2023-08-21T03:12:20;5.80;;;2.78;;
72797;SDS011;61084;55.816;37.036;2023-08-21T03:14:47;9.20;;;3.10;;
72797;SDS011;61084;55.816;37.036;2023-08-21T03:17:13;4.70;;;2.95;;
72797;SDS011;61084;55.816;37.036;2023-08-21T03:19:39;4.88;;;2.95;;
72797;SDS011;61084;55.816;37.036;2023-08-21T03:22:04;8.75;;;2.80;;
72797;SDS011;61084;55.816;37.036;2023-08-21T03:24:31;4.90;;;3.17;;
72797;SDS011;61084;55.816;37.036;2023-08-21T03:26:57;5.97;;;3.03;;
72797;SDS011;61084;55.816;37.036;2023-08-21T03:29:23;4.82;;;2.63;;
72797;SDS011;61084;55.816;37.036;2023-08-21T03:31:50;6.82;;;3.00;;
72797;SDS011;61084;55.816;37.036;2023-08-21T03:34:19;4.75;;;2.67;;
72797;SDS011;61084;55.816;37.036;2023-08-21T03:36:46;3.33;;;2.60;;
72797;SDS011;61084;55.816;37.036;2023-08-21T03:39:12;3.85;;;2.58;;
72797;SDS011;61084;55.816;37.036;2023-08-21T03:41:43;4.22;;;2.58;;
72797;SDS011;61084;55.816;37.036;2023-08-21T03:44:09;5.40;;;2.58;;
72797;SDS011;61084;55.816;37.036;2023-08-21T03:46:35;5.10;;;2.60;;
72797;SDS011;61084;55.816;37.036;2023-08-21T03:49:01;5.18;;;2.47;;
72797;SDS011;61084;55.816;37.036;2023-08-21T03:51:27;3.42;;;2.13;;
72797;SDS011;61084;55.816;37.036;2023-08-21T03:53:53;3.22;;;2.22;;
72797;SDS011;61084;55.816;37.036;2023-08-21T03:56:19;3.58;;;2.30;;
72797;SDS011;61084;55.816;37.036;2023-08-21T03:58:45;3.55;;;2.20;;
72797;SDS011;61084;55.816;37.036;2023-08-21T04:01:11;3.22;;;1.98;;
72797;SDS011;61084;55.816;37.036;2023-08-21T04:03:38;4.80;;;2.33;;
72797;SDS011;61084;55.816;37.036;2023-08-21T04:06:05;3.13;;;1.88;;
72797;SDS011;61084;55.816;37.036;2023-08-21T04:08:33;5.03;;;1.83;;
72797;SDS011;61084;55.816;37.036;2023-08-21T04:10:59;2.33;;;1.63;;
72797;SDS011;61084;55.816;37.036;2023-08-21T04:13:26;5.13;;;1.90;;
72797;SDS011;61084;55.816;37.036;2023-08-21T04:15:53;2.13;;;1.65;;
72797;SDS011;61084;55.816;37.036;2023-08-21T04:18:22;4.50;;;1.58;;
72797;SDS011;61084;55.816;37.036;2023-08-21T04:20:51;5.60;;;1.70;;
72797;SDS011;61084;55.816;37.036;2023-08-21T04:23:18;4.68;;;1.60;;
72797;SDS011;61084;55.816;37.036;2023-08-21T04:25:44;3.10;;;1.58;;
72797;SDS011;61084;55.816;37.036;2023-08-21T04:28:11;1.85;;;1.65;;
72797;SDS011;61084;55.816;37.036;2023-08-21T04:30:42;4.57;;;1.58;;
72797;SDS011;61084;55.816;37.036;2023-08-21T04:33:08;9.27;;;1.40;;
72797;SDS011;61084;55.816;37.036;2023-08-21T04:35:37;3.60;;;1.73;;
72797;SDS011;61084;55.816;37.036;2023-08-21T04:38:04;2.00;;;1.60;;
72797;SDS011;61084;55.816;37.036;2023-08-21T04:40:30;4.95;;;1.40;;
72797;SDS011;61084;55.816;37.036;2023-08-21T04:42:57;2.45;;;1.40;;
72797;SDS011;61084;55.816;37.036;2023-08-21T04:45:23;2.20;;;1.30;;
72797;SDS011;61084;55.816;37.036;2023-08-21T04:47:49;6.57;;;1.60;;
72797;SDS011;61084;55.816;37.036;2023-08-21T04:50:16;4.70;;;1.60;;
72797;SDS011;61084;55.816;37.036;2023-08-21T04:52:42;2.65;;;1.15;;
72797;SDS011;61084;55.816;37.036;2023-08-21T04:57:36;6.07;;;2.45;;
72797;SDS011;61084;55.816;37.036;2023-08-21T05:00:05;3.53;;;1.70;;
72797;SDS011;61084;55.816;37.036;2023-08-21T05:02:36;2.75;;;1.50;;
72797;SDS011;61084;55.816;37.036;2023-08-21T05:05:02;2.65;;;1.92;;
72797;SDS011;61084;55.816;37.036;2023-08-21T05:07:31;4.03;;;2.15;;
72797;SDS011;61084;55.816;37.036;2023-08-21T05:09:59;2.10;;;1.30;;
72797;SDS011;61084;55.816;37.036;2023-08-21T05:12:31;5.97;;;1.55;;
72797;SDS011;61084;55.816;37.036;2023-08-21T05:14:59;3.97;;;1.10;;
72797;SDS011;61084;55.816;37.036;2023-08-21T05:17:25;4.22;;;1.40;;
72797;SDS011;61084;55.816;37.036;2023-08-21T05:19:52;2.90;;;1.60;;
72797;SDS011;61084;55.816;37.036;2023-08-21T05:22:19;3.38;;;1.45;;
72797;SDS011;61084;55.816;37.036;2023-08-21T05:24:45;2.22;;;1.30;;
72797;SDS011;61084;55.816;37.036;2023-08-21T05:27:11;5.35;;;1.38;;
72797;SDS011;61084;55.816;37.036;2023-08-21T05:29:37;4.70;;;1.60;;
72797;SDS011;61084;55.816;37.036;2023-08-21T05:32:03;4.28;;;1.70;;
72797;SDS011;61084;55.816;37.036;2023-08-21T05:34:30;2.90;;;1.05;;
72797;SDS011;61084;55.816;37.036;2023-08-21T05:36:56;2.45;;;1.17;;
72797;SDS011;61084;55.816;37.036;2023-08-21T05:39:22;2.60;;;1.63;;
72797;SDS011;61084;55.816;37.036;2023-08-21T05:41:49;3.92;;;1.50;;
72797;SDS011;61084;55.816;37.036;2023-08-21T05:44:15;2.72;;;1.25;;
72797;SDS011;61084;55.816;37.036;2023-08-21T05:46:42;3.38;;;1.60;;
72797;SDS011;61084;55.816;37.036;2023-08-21T05:49:08;2.35;;;1.33;;
72797;SDS011;61084;55.816;37.036;2023-08-21T05:51:34;2.42;;;1.10;;
72797;SDS011;61084;55.816;37.036;2023-08-21T05:54:00;3.90;;;1.08;;
72797;SDS011;61084;55.816;37.036;2023-08-21T05:56:27;1.30;;;1.13;;
72797;SDS011;61084;55.816;37.036;2023-08-21T05:58:53;2.42;;;1.30;;
72797;SDS011;61084;55.816;37.036;2023-08-21T06:01:22;4.45;;;1.70;;
72797;SDS011;61084;55.816;37.036;2023-08-21T06:03:49;3.42;;;1.27;;
72797;SDS011;61084;55.816;37.036;2023-08-21T06:06:23;4.00;;;1.70;;
72797;SDS011;61084;55.816;37.036;2023-08-21T06:08:49;1.92;;;1.40;;
72797;SDS011;61084;55.816;37.036;2023-08-21T06:11:15;2.85;;;1.27;;
72797;SDS011;61084;55.816;37.036;2023-08-21T06:13:41;2.40;;;1.40;;
72797;SDS011;61084;55.816;37.036;2023-08-21T06:16:07;2.50;;;1.23;;
72797;SDS011;61084;55.816;37.036;2023-08-21T06:18:36;4.15;;;2.20;;
72797;SDS011;61084;55.816;37.036;2023-08-21T06:21:02;3.17;;;1.48;;
72797;SDS011;61084;55.816;37.036;2023-08-21T06:25:54;2.42;;;1.00;;
72797;SDS011;61084;55.816;37.036;2023-08-21T06:28:21;1.50;;;1.10;;
72797;SDS011;61084;55.816;37.036;2023-08-21T06:30:47;4.15;;;1.48;;
72797;SDS011;61084;55.816;37.036;2023-08-21T06:33:21;1.95;;;1.33;;
72797;SDS011;61084;55.816;37.036;2023-08-21T06:35:48;2.13;;;1.20;;
72797;SDS011;61084;55.816;37.036;2023-08-21T06:38:16;5.57;;;1.30;;
72797;SDS011;61084;55.816;37.036;2023-08-21T06:40:44;2.08;;;1.30;;
72797;SDS011;61084;55.816;37.036;2023-08-21T06:43:11;2.38;;;1.30;;
72797;SDS011;61084;55.816;37.036;2023-08-21T06:45:42;2.45;;;1.08;;
72797;SDS011;61084;55.816;37.036;2023-08-21T06:48:08;1.52;;;1.10;;
72797;SDS011;61084;55.816;37.036;2023-08-21T06:50:34;1.65;;;1.00;;
72797;SDS011;61084;55.816;37.036;2023-08-21T06:53:02;3.50;;;1.40;;
72797;SDS011;61084;55.816;37.036;2023-08-21T06:55:28;1.40;;;1.00;;
72797;SDS011;61084;55.816;37.036;2023-08-21T06:57:54;1.30;;;1.10;;
72797;SDS011;61084;55.816;37.036;2023-08-21T07:00:20;1.98;;;1.10;;
72797;SDS011;61084;55.816;37.036;2023-08-21T07:02:46;1.92;;;1.02;;
72797;SDS011;61084;55.816;37.036;2023-08-21T07:05:12;2.08;;;1.13;;
72797;SDS011;61084;55.816;37.036;2023-08-21T07:07:37;5.38;;;1.20;;
72797;SDS011;61084;55.816;37.036;2023-08-21T07:10:03;1.58;;;1.08;;
72797;SDS011;61084;55.816;37.036;2023-08-21T07:12:30;2.40;;;0.93;;
72797;SDS011;61084;55.816;37.036;2023-08-21T07:14:56;4.38;;;1.30;;
72797;SDS011;61084;55.816;37.036;2023-08-21T07:17:22;2.35;;;1.00;;
72797;SDS011;61084;55.816;37.036;2023-08-21T07:19:47;2.50;;;1.08;;
72797;SDS011;61084;55.816;37.036;2023-08-21T07:22:14;3.50;;;1.40;;
72797;SDS011;61084;55.816;37.036;2023-08-21T07:24:40;2.92;;;1.10;;
72797;SDS011;61084;55.816;37.036;2023-08-21T07:27:06;2.00;;;1.20;;
72797;SDS011;61084;55.816;37.036;2023-08-21T07:29:32;0.90;;;0.80;;
72797;SDS011;61084;55.816;37.036;2023-08-21T07:31:58;2.75;;;1.02;;
72797;SDS011;61084;55.816;37.036;2023-08-21T07:34:24;2.83;;;1.30;;
72797;SDS011;61084;55.816;37.036;2023-08-21T07:36:49;4.40;;;1.05;;
72797;SDS011;61084;55.816;37.036;2023-08-21T07:39:15;1.50;;;0.98;;
72797;SDS011;61084;55.816;37.036;2023-08-21T07:41:41;1.88;;;1.10;;
72797;SDS011;61084;55.816;37.036;2023-08-21T07:44:07;3.13;;;1.52;;
72797;SDS011;61084;55.816;37.036;2023-08-21T07:46:32;1.80;;;1.13;;
72797;SDS011;61084;55.816;37.036;2023-08-21T07:49:02;2.75;;;1.17;;
72797;SDS011;61084;55.816;37.036;2023-08-21T07:51:28;1.83;;;1.05;;
72797;SDS011;61084;55.816;37.036;2023-08-21T07:53:54;2.53;;;1.00;;
72797;SDS011;61084;55.816;37.036;2023-08-21T07:56:20;3.53;;;1.65;;
72797;SDS011;61084;55.816;37.036;2023-08-21T07:58:45;5.18;;;2.42;;
72797;SDS011;61084;55.816;37.036;2023-08-21T08:01:11;4.18;;;1.40;;
72797;SDS011;61084;55.816;37.036;2023-08-21T08:03:37;2.47;;;1.13;;
72797;SDS011;61084;55.816;37.036;2023-08-21T08:06:03;1.25;;;0.98;;
72797;SDS011;61084;55.816;37.036;2023-08-21T08:08:29;4.47;;;1.17;;
72797;SDS011;61084;55.816;37.036;2023-08-21T08:10:59;3.10;;;1.10;;
72797;SDS011;61084;55.816;37.036;2023-08-21T08:13:27;1.25;;;0.90;;
72797;SDS011;61084;55.816;37.036;2023-08-21T08:15:52;3.63;;;1.08;;
72797;SDS011;61084;55.816;37.036;2023-08-21T08:18:18;0.90;;;0.80;;
72797;SDS011;61084;55.816;37.036;2023-08-21T08:20:44;1.45;;;0.98;;
72797;SDS011;61084;55.816;37.036;2023-08-21T08:23:10;2.85;;;1.05;;
72797;SDS011;61084;55.816;37.036;2023-08-21T08:25:36;3.42;;;1.13;;
72797;SDS011;61084;55.816;37.036;2023-08-21T08:28:02;1.80;;;1.00;;
72797;SDS011;61084;55.816;37.036;2023-08-21T08:30:28;1.73;;;1.10;;
72797;SDS011;61084;55.816;37.036;2023-08-21T08:32:54;1.30;;;1.17;;
72797;SDS011;61084;55.816;37.036;2023-08-21T08:35:20;6.40;;;1.25;;
72797;SDS011;61084;55.816;37.036;2023-08-21T08:37:45;2.13;;;1.00;;
72797;SDS011;61084;55.816;37.036;2023-08-21T08:40:11;1.90;;;1.10;;
72797;SDS011;61084;55.816;37.036;2023-08-21T08:42:38;1.20;;;0.90;;
72797;SDS011;61084;55.816;37.036;2023-08-21T08:45:05;3.15;;;1.10;;
72797;SDS011;61084;55.816;37.036;2023-08-21T08:47:35;2.20;;;1.00;;
72797;SDS011;61084;55.816;37.036;2023-08-21T08:50:03;5.18;;;1.10;;
72797;SDS011;61084;55.816;37.036;2023-08-21T08:52:34;2.97;;;1.00;;
72797;SDS011;61084;55.816;37.036;2023-08-21T08:55:01;2.72;;;0.98;;
72797;SDS011;61084;55.816;37.036;2023-08-21T08:57:33;2.15;;;1.00;;
72797;SDS011;61084;55.816;37.036;2023-08-21T09:00:00;2.67;;;0.80;;
72797;SDS011;61084;55.816;37.036;2023-08-21T09:02:34;1.33;;;0.90;;
72797;SDS011;61084;55.816;37.036;2023-08-21T09:05:01;1.60;;;0.90;;
72797;SDS011;61084;55.816;37.036;2023-08-21T09:07:29;3.13;;;1.02;;
72797;SDS011;61084;55.816;37.036;2023-08-21T09:09:55;1.75;;;0.85;;
72797;SDS011;61084;55.816;37.036;2023-08-21T09:12:21;2.10;;;1.00;;
72797;SDS011;61084;55.816;37.036;2023-08-21T09:14:48;1.23;;;0.80;;
72797;SDS011;61084;55.816;37.036;2023-08-21T09:17:14;2.60;;;1.20;;
72797;SDS011;61084;55.816;37.036;2023-08-21T09:19:40;2.83;;;1.35;;
72797;SDS011;61084;55.816;37.036;2023-08-21T09:24:37;1.02;;;0.98;;
72797;SDS011;61084;55.816;37.036;2023-08-21T09:27:05;1.25;;;1.00;;
72797;SDS011;61084;55.816;37.036;2023-08-21T09:29:39;1.35;;;1.00;;
72797;SDS011;61084;55.816;37.036;2023-08-21T09:32:08;1.77;;;0.90;;
72797;SDS011;61084;55.816;37.036;2023-08-21T09:34:34;1.73;;;0.98;;
72797;SDS011;61084;55.816;37.036;2023-08-21T09:37:07;1.10;;;0.80;;
72797;SDS011;61084;55.816;37.036;2023-08-21T09:39:36;1.67;;;0.95;;
72797;SDS011;61084;55.816;37.036;2023-08-21T09:42:06;0.80;;;0.68;;
72797;SDS011;61084;55.816;37.036;2023-08-21T09:44:42;1.67;;;1.10;;
72797;SDS011;61084;55.816;37.036;2023-08-21T09:47:09;2.45;;;1.02;;
72797;SDS011;61084;55.816;37.036;2023-08-21T09:49:38;2.80;;;1.20;;
72797;SDS011;61084;55.816;37.036;2023-08-21T09:52:06;3.25;;;0.80;;
72797;SDS011;61084;55.816;37.036;2023-08-21T09:54:52;4.32;;;1.00;;
72797;SDS011;61084;55.816;37.036;2023-08-21T09:57:19;1.55;;;1.02;;
72797;SDS011;61084;55.816;37.036;2023-08-21T09:59:47;1.30;;;1.17;;
72797;SDS011;61084;55.816;37.036;2023-08-21T10:02:18;1.23;;;0.82;;
72797;SDS011;61084;55.816;37.036;2023-08-21T10:04:44;2.33;;;1.08;;
72797;SDS011;61084;55.816;37.036;2023-08-21T10:07:11;4.13;;;1.20;;
72797;SDS011;61084;55.816;37.036;2023-08-21T10:09:39;2.35;;;1.00;;
72797;SDS011;61084;55.816;37.036;2023-08-21T10:12:10;3.53;;;1.42;;
72797;SDS011;61084;55.816;37.036;2023-08-21T10:14:40;1.05;;;0.75;;
72797;SDS011;61084;55.816;37.036;2023-08-21T10:17:07;3.53;;;1.15;;
72797;SDS011;61084;55.816;37.036;2023-08-21T10:19:36;1.95;;;1.00;;
72797;SDS011;61084;55.816;37.036;2023-08-21T10:22:01;1.77;;;0.98;;
72797;SDS011;61084;55.816;37.036;2023-08-21T10:24:36;2.67;;;1.08;;
72797;SDS011;61084;55.816;37.036;2023-08-21T10:27:03;3.70;;;0.90;;
72797;SDS011;61084;55.816;37.036;2023-08-21T10:29:31;1.83;;;0.80;;
72797;SDS011;61084;55.816;37.036;2023-08-21T10:31:59;0.88;;;0.82;;
72797;SDS011;61084;55.816;37.036;2023-08-21T10:34:33;1.90;;;0.90;;
72797;SDS011;61084;55.816;37.036;2023-08-21T10:39:36;0.80;;;0.80;;
72797;SDS011;61084;55.816;37.036;2023-08-21T10:47:18;3.90;;;1.05;;
72797;SDS011;61084;55.816;37.036;2023-08-21T10:49:46;2.20;;;1.13;;
72797;SDS011;61084;55.816;37.036;2023-08-21T10:52:13;2.88;;;1.13;;
72797;SDS011;61084;55.816;37.036;2023-08-21T10:54:47;1.42;;;1.00;;
72797;SDS011;61084;55.816;37.036;2023-08-21T10:57:14;2.10;;;1.15;;
72797;SDS011;61084;55.816;37.036;2023-08-21T10:59:50;1.80;;;0.90;;
72797;SDS011;61084;55.816;37.036;2023-08-21T11:02:20;2.03;;;1.20;;
72797;SDS011;61084;55.816;37.036;2023-08-21T11:04:47;2.28;;;0.88;;
72797;SDS011;61084;55.816;37.036;2023-08-21T11:07:14;3.70;;;0.90;;
72797;SDS011;61084;55.816;37.036;2023-08-21T11:09:40;1.77;;;1.05;;
72797;SDS011;61084;55.816;37.036;2023-08-21T11:12:09;1.23;;;0.90;;
72797;SDS011;61084;55.816;37.036;2023-08-21T11:14:37;1.80;;;0.90;;
72797;SDS011;61084;55.816;37.036;2023-08-21T11:17:04;2.20;;;1.00;;
72797;SDS011;61084;55.816;37.036;2023-08-21T11:19:31;2.95;;;1.00;;
72797;SDS011;61084;55.816;37.036;2023-08-21T11:21:58;2.33;;;1.08;;
72797;SDS011;61084;55.816;37.036;2023-08-21T11:27:04;1.23;;;0.93;;
72797;SDS011;61084;55.816;37.036;2023-08-21T11:29:41;2.65;;;1.20;;
72797;SDS011;61084;55.816;37.036;2023-08-21T11:32:09;1.38;;;1.10;;
72797;SDS011;61084;55.816;37.036;2023-08-21T11:34:37;2.65;;;0.80;;
72797;SDS011;61084;55.816;37.036;2023-08-21T11:37:04;1.63;;;1.10;;
72797;SDS011;61084;55.816;37.036;2023-08-21T11:39:43;1.40;;;0.98;;
72797;SDS011;61084;55.816;37.036;2023-08-21T11:42:29;1.35;;;1.00;;
72797;SDS011;61084;55.816;37.036;2023-08-21T11:44:56;2.53;;;1.15;;
72797;SDS011;61084;55.816;37.036;2023-08-21T11:47:22;3.03;;;1.15;;
72797;SDS011;61084;55.816;37.036;2023-08-21T11:49:49;3.17;;;1.15;;
72797;SDS011;61084;55.816;37.036;2023-08-21T11:52:19;2.30;;;1.30;;
72797;SDS011;61084;55.816;37.036;2023-08-21T11:54:47;1.90;;;1.42;;
72797;SDS011;61084;55.816;37.036;2023-08-21T11:57:14;3.17;;;1.00;;
72797;SDS011;61084;55.816;37.036;2023-08-21T11:59:41;2.88;;;1.00;;
72797;SDS011;61084;55.816;37.036;2023-08-21T12:02:13;3.17;;;1.05;;
72797;SDS011;61084;55.816;37.036;2023-08-21T12:04:41;4.50;;;1.27;;
72797;SDS011;61084;55.816;37.036;2023-08-21T12:07:07;1.58;;;1.23;;
72797;SDS011;61084;55.816;37.036;2023-08-21T12:09:33;2.15;;;1.50;;
72797;SDS011;61084;55.816;37.036;2023-08-21T12:14:25;4.13;;;1.30;;
72797;SDS011;61084;55.816;37.036;2023-08-21T12:16:52;2.15;;;1.23;;
72797;SDS011;61084;55.816;37.036;2023-08-21T12:19:20;3.03;;;1.33;;
72797;SDS011;61084;55.816;37.036;2023-08-21T12:21:48;3.33;;;1.20;;
72797;SDS011;61084;55.816;37.036;2023-08-21T12:24:14;1.42;;;1.10;;
72797;SDS011;61084;55.816;37.036;2023-08-21T12:29:05;2.22;;;1.00;;
72797;SDS011;61084;55.816;37.036;2023-08-21T12:31:31;2.53;;;0.95;;
72797;SDS011;61084;55.816;37.036;2023-08-21T12:36:23;2.38;;;1.25;;
72797;SDS011;61084;55.816;37.036;2023-08-21T12:41:15;2.10;;;1.23;;
72797;SDS011;61084;55.816;37.036;2023-08-21T12:43:41;1.48;;;1.13;;
72797;SDS011;61084;55.816;37.036;2023-08-21T12:46:06;1.65;;;0.80;;
72797;SDS011;61084;55.816;37.036;2023-08-21T12:50:58;3.53;;;1.20;;
72797;SDS011;61084;55.816;37.036;2023-08-21T12:53:24;1.65;;;1.23;;
72797;SDS011;61084;55.816;37.036;2023-08-21T12:55:50;1.15;;;1.05;;
72797;SDS011;61084;55.816;37.036;2023-08-21T13:00:41;1.20;;;1.00;;
72797;SDS011;61084;55.816;37.036;2023-08-21T13:05:33;4.40;;;1.00;;
72797;SDS011;61084;55.816;37.036;2023-08-21T13:08:00;1.00;;;0.90;;
72797;SDS011;61084;55.816;37.036;2023-08-21T13:10:26;2.90;;;0.90;;
72797;SDS011;61084;55.816;37.036;2023-08-21T13:15:17;1.48;;;0.88;;
72797;SDS011;61084;55.816;37.036;2023-08-21T13:20:09;3.33;;;1.20;;
72797;SDS011;61084;55.816;37.036;2023-08-21T13:22:46;2.05;;;1.00;;
72797;SDS011;61084;55.816;37.036;2023-08-21T13:25:15;1.77;;;1.10;;
72797;SDS011;61084;55.816;37.036;2023-08-21T13:27:41;1.40;;;0.90;;
72797;SDS011;61084;55.816;37.036;2023-08-21T13:30:07;0.70;;;0.70;;
72797;SDS011;61084;55.816;37.036;2023-08-21T13:32:34;2.47;;;1.20;;
72797;SDS011;61084;55.816;37.036;2023-08-21T13:37:25;2.05;;;1.10;;
72797;SDS011;61084;55.816;37.036;2023-08-21T13:39:52;1.70;;;0.95;;
72797;SDS011;61084;55.816;37.036;2023-08-21T13:42:20;2.58;;;1.25;;
72797;SDS011;61084;55.816;37.036;2023-08-21T13:47:12;1.33;;;0.88;;
72797;SDS011;61084;55.816;37.036;2023-08-21T13:52:03;1.88;;;1.02;;
72797;SDS011;61084;55.816;37.036;2023-08-21T13:56:55;1.00;;;0.90;;
72797;SDS011;61084;55.816;37.036;2023-08-21T14:01:46;2.25;;;1.10;;
72797;SDS011;61084;55.816;37.036;2023-08-21T14:06:38;3.60;;;1.40;;
72797;SDS011;61084;55.816;37.036;2023-08-21T14:11:29;6.25;;;1.00;;
72797;SDS011;61084;55.816;37.036;2023-08-21T14:16:20;3.80;;;1.10;;
72797;SDS011;61084;55.816;37.036;2023-08-21T14:21:12;0.98;;;0.80;;
72797;SDS011;61084;55.816;37.036;2023-08-21T14:23:37;2.63;;;1.30;;
72797;SDS011;61084;55.816;37.036;2023-08-21T14:26:04;1.02;;;0.80;;
72797;SDS011;61084;55.816;37.036;2023-08-21T14:30:56;3.05;;;0.93;;
72797;SDS011;61084;55.816;37.036;2023-08-21T14:33:22;3.65;;;1.05;;
72797;SDS011;61084;55.816;37.036;2023-08-21T14:38:14;1.80;;;1.02;;
72797;SDS011;61084;55.816;37.036;2023-08-21T14:43:05;1.52;;;0.90;;
72797;SDS011;61084;55.816;37.036;2023-08-21T14:47:56;4.65;;;1.00;;
72797;SDS011;61084;55.816;37.036;2023-08-21T14:52:48;1.85;;;1.20;;
72797;SDS011;61084;55.816;37.036;2023-08-21T14:57:40;2.33;;;1.00;;
72797;SDS011;61084;55.816;37.036;2023-08-21T15:02:34;2.35;;;0.90;;
72797;SDS011;61084;55.816;37.036;2023-08-21T15:05:01;1.85;;;0.93;;
72797;SDS011;61084;55.816;37.036;2023-08-21T15:07:30;2.35;;;1.10;;
72797;SDS011;61084;55.816;37.036;2023-08-21T15:09:56;1.80;;;0.80;;
72797;SDS011;61084;55.816;37.036;2023-08-21T15:12:22;3.30;;;1.00;;
72797;SDS011;61084;55.816;37.036;2023-08-21T15:14:47;1.92;;;1.20;;
72797;SDS011;61084;55.816;37.036;2023-08-21T15:17:13;1.75;;;1.15;;
72797;SDS011;61084;55.816;37.036;2023-08-21T15:19:39;1.90;;;1.20;;
72797;SDS011;61084;55.816;37.036;2023-08-21T15:22:05;1.70;;;0.90;;
72797;SDS011;61084;55.816;37.036;2023-08-21T15:24:31;2.35;;;1.23;;
72797;SDS011;61084;55.816;37.036;2023-08-21T15:26:57;2.65;;;1.25;;
72797;SDS011;61084;55.816;37.036;2023-08-21T15:29:23;1.85;;;1.08;;
72797;SDS011;61084;55.816;37.036;2023-08-21T15:31:49;1.52;;;1.00;;
72797;SDS011;61084;55.816;37.036;2023-08-21T15:34:16;1.75;;;1.45;;
72797;SDS011;61084;55.816;37.036;2023-08-21T15:39:07;3.38;;;1.23;;
72797;SDS011;61084;55.816;37.036;2023-08-21T15:43:59;2.80;;;1.25;;
72797;SDS011;61084;55.816;37.036;2023-08-21T15:48:53;2.35;;;1.25;;
72797;SDS011;61084;55.816;37.036;2023-08-21T15:51:18;2.30;;;1.20;;
72797;SDS011;61084;55.816;37.036;2023-08-21T15:53:44;3.15;;;1.10;;
72797;SDS011;61084;55.816;37.036;2023-08-21T15:56:10;1.45;;;1.25;;
72797;SDS011;61084;55.816;37.036;2023-08-21T15:58:36;6.07;;;1.73;;
72797;SDS011;61084;55.816;37.036;2023-08-21T16:01:02;2.97;;;2.03;;
72797;SDS011;61084;55.816;37.036;2023-08-21T16:03:27;4.88;;;1.52;;
72797;SDS011;61084;55.816;37.036;2023-08-21T16:05:53;3.95;;;1.38;;